Observation data for Paducah on 06/20/2019      Previous  Date  Next       Current Mesonet Observations  Soil Data  Daily Summary Page  Observations in Plain Language
KPAD 200500Z 14002KT 23/20 A2979 RMK A01 T02320195  RH  084%=      5-min Rain = 0
KPAD 200505Z 14003KT 23/19 A2979 RMK A01 T02320194  RH  084%=      5-min Rain = 0
KPAD 200510Z 14004KT 23/19 A2979 RMK A01 T02320193  RH  083%=      5-min Rain = 0
KPAD 200515Z 15004KT 23/19 A2979 RMK A01 T02310192  RH  083%=      5-min Rain = 0
KPAD 200520Z 15005KT 23/19 A2979 RMK A01 T02290191  RH  084%=      5-min Rain = 0
KPAD 200525Z 16005KT 22/19 A2979 RMK A01 T02240188  RH  084%=      5-min Rain = 0
KPAD 200530Z 16005KT 22/19 A2979 RMK A01 T02210188  RH  086%=      5-min Rain = 0
KPAD 200535Z 17006KT 22/19 A2979 RMK A01 T02220190  RH  087%=      5-min Rain = 0
KPAD 200540Z 17005KT 22/19 A2979 RMK A01 T02220190  RH  087%=      5-min Rain = 0
KPAD 200545Z 19006KT 22/19 A2979 RMK A01 T02210189  RH  087%=      5-min Rain = 0
KPAD 200550Z 20007KT 22/19 A2979 RMK A01 T02180187  RH  087%=      5-min Rain = 0
KPAD 200555Z 20006KT 22/19 A2979 RMK A01 T02170187  RH  088%=      5-min Rain = 0
KPAD 200600Z 19006KT 22/19 A2979 RMK A01 T02180187  RH  087%=      5-min Rain = 0
KPAD 200605Z 19006KT 22/19 A2979 RMK A01 T02170186  RH  087%=      5-min Rain = 0
KPAD 200610Z 20007KT 22/19 A2979 RMK A01 T02160185  RH  087%=      5-min Rain = 0
KPAD 200615Z 20006KT 22/18 A2979 RMK A01 T02150184  RH  087%=      5-min Rain = 0
KPAD 200620Z 19006KT 22/18 A2979 RMK A01 T02150184  RH  087%=      5-min Rain = 0
KPAD 200625Z 20007KT 21/18 A2979 RMK A01 T02130183  RH  087%=      5-min Rain = 0
KPAD 200630Z 20007KT 21/18 A2979 RMK A01 T02110183  RH  089%=      5-min Rain = 0
KPAD 200635Z 20007KT 21/18 A2979 RMK A01 T02110184  RH  089%=      5-min Rain = 0
KPAD 200640Z 20008KT 21/18 A2979 RMK A01 T02110184  RH  089%=      5-min Rain = 0
KPAD 200645Z 19008KT 21/19 A2979 RMK A01 T02110186  RH  090%=      5-min Rain = 0
KPAD 200650Z 20006KT 21/19 A2979 RMK A01 T02130188  RH  090%=      5-min Rain = 0
KPAD 200655Z 20006KT 21/19 A2979 RMK A01 T02140188  RH  090%=      5-min Rain = 0
KPAD 200700Z 19006KT 21/19 A2979 RMK A01 T02130188  RH  090%=      5-min Rain = 0
KPAD 200705Z 20007KT 21/19 A2979 RMK A01 T02130188  RH  090%=      5-min Rain = 0
KPAD 200710Z 19007KT 21/19 A2979 RMK A01 T02120188  RH  091%=      5-min Rain = 0
KPAD 200715Z 18007KT 21/19 A2979 RMK A01 T02140189  RH  091%=      5-min Rain = 0
KPAD 200720Z 18008KT 21/19 A2979 RMK A01 T02140189  RH  091%=      5-min Rain = 0
KPAD 200725Z 18008KT 22/19 A2979 RMK A01 T02150190  RH  091%=      5-min Rain = 0
KPAD 200730Z 18007KT 22/19 A2979 RMK A01 T02150190  RH  090%=      5-min Rain = 0
KPAD 200735Z 19008KT 21/19 A2979 RMK A01 T02140189  RH  091%=      5-min Rain = 0
KPAD 200740Z 19008KT 22/19 A2979 RMK A01 T02150190  RH  091%=      5-min Rain = 0
KPAD 200745Z 19008KT 22/19 A2979 RMK A01 T02160192  RH  091%=      5-min Rain = 0
KPAD 200750Z 19009KT 22/19 A2978 RMK A01 T02160191  RH  091%=      5-min Rain = 0
KPAD 200755Z 19009KT 22/19 A2978 RMK A01 T02160192  RH  091%=      5-min Rain = 0
KPAD 200800Z 19009KT 22/19 A2978 RMK A01 T02160192  RH  091%=      5-min Rain = 0
KPAD 200805Z 19008KT 22/19 A2978 RMK A01 T02160192  RH  091%=      5-min Rain = 0
KPAD 200810Z 20007KT 22/19 A2978 RMK A01 T02150192  RH  091%=      5-min Rain = 0
KPAD 200815Z 20006KT 21/19 A2978 RMK A01 T02140191  RH  091%=      5-min Rain = 0
KPAD 200820Z 19006KT 21/19 A2978 RMK A01 T02130190  RH  092%=      5-min Rain = 0
KPAD 200825Z 18006KT 21/19 A2978 RMK A01 T02130191  RH  092%=      5-min Rain = 0
KPAD 200830Z 18007KT 21/19 A2977 RMK A01 T02140191  RH  092%=      5-min Rain = 0
KPAD 200835Z 19007KT 21/19 A2977 RMK A01 T02140191  RH  092%=      5-min Rain = 0
KPAD 200840Z 19007KT 21/19 A2977 RMK A01 T02130190  RH  092%=      5-min Rain = 0
KPAD 200845Z 19007KT 21/19 A2976 RMK A01 T02130190  RH  092%=      5-min Rain = 0
KPAD 200850Z 19007KT 21/19 A2976 RMK A01 T02130189  RH  091%=      5-min Rain = 0
KPAD 200855Z 19006KT 21/19 A2976 RMK A01 T02120188  RH  091%=      5-min Rain = 0
KPAD 200900Z 19006KT 21/19 A2976 RMK A01 T02100186  RH  091%=      5-min Rain = 0
KPAD 200905Z 19007KT 21/19 A2976 RMK A01 T02100186  RH  091%=      5-min Rain = 0
KPAD 200910Z 19007KT 21/19 A2976 RMK A01 T02110186  RH  090%=      5-min Rain = 0
KPAD 200915Z 20007KT 21/19 A2976 RMK A01 T02110185  RH  090%=      5-min Rain = 0
KPAD 200920Z 20007KT 21/19 A2976 RMK A01 T02100185  RH  090%=      5-min Rain = 0
KPAD 200925Z 19007KT 21/18 A2976 RMK A01 T02090184  RH  090%=      5-min Rain = 0
KPAD 200930Z 19006KT 21/18 A2976 RMK A01 T02090184  RH  090%=      5-min Rain = 0
KPAD 200935Z 19006KT 21/18 A2976 RMK A01 T02080183  RH  090%=      5-min Rain = 0
KPAD 200940Z 19005KT 21/18 A2976 RMK A01 T02070183  RH  091%=      5-min Rain = 0
KPAD 200945Z 19003KT 21/18 A2976 RMK A01 T02060182  RH  091%=      5-min Rain = 0
KPAD 200950Z 21003KT 21/18 A2976 RMK A01 T02050182  RH  091%=      5-min Rain = 0
KPAD 200955Z 19002KT 21/18 A2976 RMK A01 T02050182  RH  091%=      5-min Rain = 0
KPAD 201000Z 18001KT 21/18 A2976 RMK A01 T02050182  RH  092%=      5-min Rain = 0
KPAD 201005Z 13002KT 21/18 A2976 RMK A01 T02050182  RH  092%=      5-min Rain = 0
KPAD 201010Z 13003KT 21/18 A2976 RMK A01 T02050183  RH  092%=      5-min Rain = 0
KPAD 201015Z 15002KT 21/18 A2976 RMK A01 T02050182  RH  092%=      5-min Rain = 0
KPAD 201020Z 15004KT 21/18 A2976 RMK A01 T02050184  RH  092%=      5-min Rain = 0
KPAD 201025Z 16004KT 21/18 A2976 RMK A01 T02050184  RH  092%=      5-min Rain = 0
KPAD 201030Z 14004KT 21/18 A2976 RMK A01 T02060184  RH  092%=      5-min Rain = 0
KPAD 201035Z 12004KT 21/18 A2976 RMK A01 T02050183  RH  092%=      5-min Rain = 0
KPAD 201040Z 10004KT 20/18 A2976 RMK A01 T02030182  RH  092%=      5-min Rain = 0
KPAD 201045Z 09004KT 20/18 A2976 RMK A01 T02000179  RH  093%=      5-min Rain = 0
KPAD 201050Z 08003KT 20/18 A2976 RMK A01 T01990179  RH  093%=      5-min Rain = 0
KPAD 201055Z 08003KT 20/18 A2976 RMK A01 T01990180  RH  094%=      5-min Rain = 0
KPAD 201100Z 10003KT 20/18 A2976 RMK A01 T02000181  RH  094%=      5-min Rain = 0
KPAD 201105Z 12004KT 20/18 A2976 RMK A01 T01990180  RH  094%=      5-min Rain = 0
KPAD 201110Z 13004KT 20/18 A2976 RMK A01 T01990181  RH  094%=      5-min Rain = 0
KPAD 201115Z 13005KT 20/18 A2975 RMK A01 T01980180  RH  094%=      5-min Rain = 0
KPAD 201120Z 13005KT 20/18 A2976 RMK A01 T01980180  RH  094%=      5-min Rain = 0
KPAD 201125Z 12005KT 20/18 A2976 RMK A01 T01980181  RH  095%=      5-min Rain = 0
KPAD 201130Z 12004KT 20/18 A2976 RMK A01 T01980182  RH  095%=      5-min Rain = 0
KPAD 201135Z 13004KT 20/18 A2976 RMK A01 T01980182  RH  095%=      5-min Rain = 0
KPAD 201140Z 12005KT 20/18 A2976 RMK A01 T01980182  RH  095%=      5-min Rain = 0
KPAD 201145Z 12004KT 20/18 A2976 RMK A01 T01990182  RH  095%=      5-min Rain = 0
KPAD 201150Z 11004KT 20/18 A2976 RMK A01 T01990182  RH  095%=      5-min Rain = 0
KPAD 201155Z 12003KT 20/18 A2976 RMK A01 T01990182  RH  095%=      5-min Rain = 0
KPAD 201200Z 14003KT 20/18 A2976 RMK A01 T02000183  RH  095%=      5-min Rain = 0
KPAD 201205Z 15004KT 20/18 A2976 RMK A01 T02010183  RH  094%=      5-min Rain = 0
KPAD 201210Z 15004KT 20/18 A2976 RMK A01 T02020183  RH  094%=      5-min Rain = 0
KPAD 201215Z 14004KT 20/18 A2976 RMK A01 T02040184  RH  094%=      5-min Rain = 0
KPAD 201220Z 14003KT 21/19 A2976 RMK A01 T02050185  RH  093%=      5-min Rain = 0
KPAD 201225Z 13002KT 21/19 A2976 RMK A01 T02070185  RH  092%=      5-min Rain = 0
KPAD 201230Z 14003KT 21/19 A2976 RMK A01 T02090186  RH  091%=      5-min Rain = 0
KPAD 201235Z 13004KT 21/19 A2975 RMK A01 T02100185  RH  091%=      5-min Rain = 0
KPAD 201240Z 12003KT 21/19 A2976 RMK A01 T02110186  RH  090%=      5-min Rain = 0
KPAD 201245Z 11002KT 21/19 A2976 RMK A01 T02140185  RH  089%=      5-min Rain = 0
KPAD 201250Z 13003KT 22/19 A2976 RMK A01 T02160186  RH  087%=      5-min Rain = 0
KPAD 201255Z 13005KT 22/18 A2976 RMK A01 T02160183  RH  086%=      5-min Rain = 0
KPAD 201300Z 13004KT 22/18 A2976 RMK A01 T02160182  RH  085%=      5-min Rain = 0
KPAD 201305Z 12004KT 22/18 A2976 RMK A01 T02170181  RH  085%=      5-min Rain = 0
KPAD 201310Z 13004KT 22/18 A2976 RMK A01 T02180180  RH  083%=      5-min Rain = 0
KPAD 201315Z 13004KT 22/18 A2976 RMK A01 T02200182  RH  083%=      5-min Rain = 0
KPAD 201320Z 12006KT 22/18 A2976 RMK A01 T02220183  RH  083%=      5-min Rain = 0
KPAD 201325Z 13005KT 22/18 A2976 RMK A01 T02220181  RH  082%=      5-min Rain = 0
KPAD 201330Z 13006KT 22/18 A2976 RMK A01 T02230182  RH  082%=      5-min Rain = 0
KPAD 201335Z 13006KT 23/18 A2977 RMK A01 T02250182  RH  081%=      5-min Rain = 0
KPAD 201340Z 15005KT 23/18 A2977 RMK A01 T02270183  RH  080%=      5-min Rain = 0
KPAD 201350Z 15004KT 23/19 A2977 RMK A01 T02320185  RH  079%=      5-min Rain = 0
KPAD 201355Z 16003KT 24/19 A2978 RMK A01 T02350185  RH  078%=      5-min Rain = 0
KPAD 201400Z 14003KT 24/19 A2977 RMK A01 T02380185  RH  076%=      5-min Rain = 0
KPAD 201405Z 13005KT 24/19 A2977 RMK A01 T02370185  RH  076%=      5-min Rain = 0
KPAD 201410Z 13005KT 24/19 A2977 RMK A01 T02390188  RH  077%=      5-min Rain = 0
KPAD 201415Z 14004KT 24/19 A2977 RMK A01 T02410188  RH  076%=      5-min Rain = 0
KPAD 201420Z 16002KT 24/19 A2978 RMK A01 T02440188  RH  075%=      5-min Rain = 0
KPAD 201425Z 15005KT 25/19 A2978 RMK A01 T02480188  RH  073%=      5-min Rain = 0
KPAD 201430Z 16004KT 25/19 A2978 RMK A01 T02500189  RH  073%=      5-min Rain = 0
KPAD 201435Z 17004KT 25/19 A2978 RMK A01 T02530188  RH  071%=      5-min Rain = 0
KPAD 201440Z 18004KT 25/19 A2978 RMK A01 T02520186  RH  071%=      5-min Rain = 0
KPAD 201445Z 18004KT 25/19 A2978 RMK A01 T02530188  RH  071%=      5-min Rain = 0
KPAD 201450Z 20003KT 25/19 A2978 RMK A01 T02540188  RH  070%=      5-min Rain = 0
KPAD 201455Z 19004KT 26/19 A2977 RMK A01 T02560189  RH  070%=      5-min Rain = 0
KPAD 201500Z 21004KT 26/19 A2978 RMK A01 T02570191  RH  071%=      5-min Rain = 0
KPAD 201505Z 19003KT 26/19 A2977 RMK A01 T02610192  RH  070%=      5-min Rain = 0
KPAD 201510Z 19005KT 27/19 A2977 RMK A01 T02650193  RH  068%=      5-min Rain = 0
KPAD 201515Z 20004KT 26/19 A2977 RMK A01 T02630193  RH  069%=      5-min Rain = 0
KPAD 201520Z 19005KT 27/20 A2977 RMK A01 T02670195  RH  068%=      5-min Rain = 0
KPAD 201525Z 20005KT 27/19 A2977 RMK A01 T02670193  RH  068%=      5-min Rain = 0
KPAD 201530Z 20006KT 27/20 A2977 RMK A01 T02680196  RH  068%=      5-min Rain = 0
KPAD 201535Z 20005KT 27/20 A2977 RMK A01 T02700196  RH  067%=      5-min Rain = 0
KPAD 201540Z 20006KT 27/20 A2976 RMK A01 T02720198  RH  068%=      5-min Rain = 0
KPAD 201545Z 18006G11KT 28/20 A2976 RMK A01 T02780199  RH  066%=      5-min Rain = 0
KPAD 201550Z 17006KT 28/20 A2976 RMK A01 T02790199  RH  065%=      5-min Rain = 0
KPAD 201555Z 18005KT 28/20 A2977 RMK A01 T02790199  RH  065%=      5-min Rain = 0
KPAD 201600Z 18005KT 28/20 A2976 RMK A01 T02800200  RH  065%=      5-min Rain = 0
KPAD 201605Z 16005KT 28/20 A2976 RMK A01 T02840201  RH  065%=      5-min Rain = 0
KPAD 201610Z 16005KT 29/20 A2976 RMK A01 T02860202  RH  064%=      5-min Rain = 0
KPAD 201615Z 14005KT 29/20 A2976 RMK A01 T02870200  RH  063%=      5-min Rain = 0
KPAD 201620Z 12003KT 29/20 A2977 RMK A01 T02880203  RH  064%=      5-min Rain = 0
KPAD 201625Z 18005KT 30/20 A2976 RMK A01 T02960204  RH  061%=      5-min Rain = 0
KPAD 201630Z 21006KT 30/20 A2976 RMK A01 T03030197  RH  056%=      5-min Rain = 0
KPAD 201635Z 18005KT 30/19 A2976 RMK A01 T03040194  RH  055%=      5-min Rain = 0
KPAD 201640Z 17004KT 31/20 A2976 RMK A01 T03070195  RH  054%=      5-min Rain = 0
KPAD 201645Z 21006KT 31/19 A2976 RMK A01 T03080194  RH  054%=      5-min Rain = 0
KPAD 201650Z 21006G11KT 31/19 A2976 RMK A01 T03090192  RH  053%=      5-min Rain = 0
KPAD 201655Z 20006KT 31/19 A2976 RMK A01 T03100190  RH  051%=      5-min Rain = 0
KPAD 201700Z 20006KT 31/19 A2976 RMK A01 T03130191  RH  051%=      5-min Rain = 0
KPAD 201705Z 20007KT 32/19 A2976 RMK A01 T03160189  RH  050%=      5-min Rain = 0
KPAD 201710Z 17005KT 32/19 A2976 RMK A01 T03200192  RH  050%=      5-min Rain = 0
KPAD 201715Z 19006KT 32/19 A2976 RMK A01 T03210192  RH  049%=      5-min Rain = 0
KPAD 201720Z 17005KT 32/19 A2976 RMK A01 T03230194  RH  049%=      5-min Rain = 0
KPAD 201725Z 19006KT 33/18 A2976 RMK A01 T03260184  RH  045%=      5-min Rain = 0
KPAD 201730Z 19006KT 33/19 A2976 RMK A01 T03290189  RH  046%=      5-min Rain = 0
KPAD 201735Z 20004KT 33/18 A2976 RMK A01 T03310181  RH  043%=      5-min Rain = 0
KPAD 201740Z 20006KT 33/19 A2976 RMK A01 T03320186  RH  044%=      5-min Rain = 0
KPAD 201745Z 20006KT 33/18 A2976 RMK A01 T03340179  RH  042%=      5-min Rain = 0
KPAD 201750Z 18007KT 34/18 A2975 RMK A01 T03370180  RH  041%=      5-min Rain = 0
KPAD 201755Z 20009KT 34/18 A2976 RMK A01 T03410177  RH  040%=      5-min Rain = 0
KPAD 201800Z 18008G13KT 34/17 A2975 RMK A01 T03400173  RH  039%=      5-min Rain = 0
KPAD 201805Z 17011G16KT 34/17 A2975 RMK A01 T03400171  RH  038%=      5-min Rain = 0
KPAD 201810Z 19012KT 34/17 A2975 RMK A01 T03410169  RH  038%=      5-min Rain = 0
KPAD 201815Z 19010KT 34/17 A2975 RMK A01 T03430167  RH  037%=      5-min Rain = 0
KPAD 201820Z 19010KT 35/17 A2975 RMK A01 T03460169  RH  037%=      5-min Rain = 0
KPAD 201825Z 19010G15KT 35/17 A2975 RMK A01 T03470168  RH  036%=      5-min Rain = 0
KPAD 201830Z 20009G14KT 35/17 A2975 RMK A01 T03480168  RH  036%=      5-min Rain = 0
KPAD 201835Z 20008KT 35/17 A2975 RMK A01 T03510171  RH  036%=      5-min Rain = 0
KPAD 201840Z 20010KT 35/16 A2975 RMK A01 T03530164  RH  034%=      5-min Rain = 0
KPAD 201845Z 19009KT 35/16 A2975 RMK A01 T03520158  RH  033%=      5-min Rain = 0
KPAD 201850Z 19009G15KT 35/16 A2975 RMK A01 T03520155  RH  032%=      5-min Rain = 0
KPAD 201855Z 19010KT 36/16 A2975 RMK A01 T03550156  RH  032%=      5-min Rain = 0
KPAD 201900Z 19010G15KT 36/16 A2974 RMK A01 T03560156  RH  032%=      5-min Rain = 0
KPAD 201905Z 19007KT 36/15 A2974 RMK A01 T03560154  RH  031%=      5-min Rain = 0
KPAD 201910Z 19010KT 36/16 A2974 RMK A01 T03590157  RH  032%=      5-min Rain = 0
KPAD 201915Z 20009KT 36/15 A2974 RMK A01 T03610154  RH  031%=      5-min Rain = 0
KPAD 201920Z 21009KT 36/15 A2974 RMK A01 T03620152  RH  030%=      5-min Rain = 0
KPAD 201925Z 20009KT 36/15 A2974 RMK A01 T03630148  RH  029%=      5-min Rain = 0
KPAD 201930Z 20009KT 37/15 A2974 RMK A01 T03660154  RH  030%=      5-min Rain = 0
KPAD 201935Z 20011KT 37/15 A2973 RMK A01 T03660146  RH  028%=      5-min Rain = 0
KPAD 201940Z 20011KT 37/15 A2973 RMK A01 T03660147  RH  029%=      5-min Rain = 0
KPAD 201945Z 21010KT 37/14 A2973 RMK A01 T03660142  RH  028%=      5-min Rain = 0
KPAD 201950Z 18010G15KT 37/15 A2973 RMK A01 T03670153  RH  029%=      5-min Rain = 0
KPAD 201955Z 18012KT 37/15 A2973 RMK A01 T03660147  RH  029%=      5-min Rain = 0
KPAD 202000Z 18010KT 37/15 A2973 RMK A01 T03660147  RH  028%=      5-min Rain = 0
KPAD 202005Z 17010KT 37/15 A2973 RMK A01 T03660145  RH  028%=      5-min Rain = 0
KPAD 202010Z 18011KT 37/15 A2973 RMK A01 T03680151  RH  029%=      5-min Rain = 0
KPAD 202015Z 19011KT 37/15 A2973 RMK A01 T03680147  RH  028%=      5-min Rain = 0
KPAD 202020Z 19010KT 37/14 A2972 RMK A01 T03680143  RH  027%=      5-min Rain = 0
KPAD 202025Z 19011KT 37/14 A2972 RMK A01 T03690143  RH  027%=      5-min Rain = 0
KPAD 202030Z 18011G16KT 37/14 A2972 RMK A01 T03690135  RH  026%=      5-min Rain = 0
KPAD 202035Z 17009KT 37/14 A2972 RMK A01 T03700141  RH  027%=      5-min Rain = 0
KPAD 202040Z 19010G16KT 37/13 A2972 RMK A01 T03710134  RH  025%=      5-min Rain = 0
KPAD 202045Z 18010G15KT 37/13 A2972 RMK A01 T03710134  RH  025%=      5-min Rain = 0
KPAD 202050Z 18011KT 37/13 A2972 RMK A01 T03720134  RH  025%=      5-min Rain = 0
KPAD 202055Z 18014KT 37/13 A2971 RMK A01 T03720128  RH  024%=      5-min Rain = 0
KPAD 202100Z 19011KT 37/13 A2971 RMK A01 T03730126  RH  024%=      5-min Rain = 0
KPAD 202105Z 19011KT 37/13 A2971 RMK A01 T03740127  RH  024%=      5-min Rain = 0
KPAD 202110Z 19012KT 38/12 A2971 RMK A01 T03750121  RH  023%=      5-min Rain = 0
KPAD 202115Z 20012KT 38/12 A297 RMK A01 T03750117  RH  022%=      5-min Rain = 0
KPAD 202120Z 19012G17KT 38/12 A297 RMK A01 T03770115  RH  022%=      5-min Rain = 0
KPAD 202125Z 19013KT 38/11 A297 RMK A01 T03770110  RH  021%=      5-min Rain = 0
KPAD 202130Z 19012G17KT 38/11 A297 RMK A01 T03780112  RH  021%=      5-min Rain = 0
KPAD 202135Z 18012G17KT 38/12 A297 RMK A01 T03790122  RH  022%=      5-min Rain = 0
KPAD 202140Z 18011G17KT 38/12 A297 RMK A01 T03770123  RH  023%=      5-min Rain = 0
KPAD 202145Z 16010G15KT 38/13 A2969 RMK A01 T03780130  RH  024%=      5-min Rain = 0
KPAD 202150Z 16012G18KT 38/13 A2969 RMK A01 T03760126  RH  023%=      5-min Rain = 0
KPAD 202155Z 16014KT 38/13 A2969 RMK A01 T03750126  RH  023%=      5-min Rain = 0
KPAD 202200Z 16011G18KT 38/14 A2969 RMK A01 T03750137  RH  025%=      5-min Rain = 0
KPAD 202205Z 16013KT 37/14 A2969 RMK A01 T03740137  RH  025%=      5-min Rain = 0
KPAD 202210Z 16009KT 37/14 A2969 RMK A01 T03740144  RH  027%=      5-min Rain = 0
KPAD 202215Z 16012G17KT 37/14 A2969 RMK A01 T03740140  RH  026%=      5-min Rain = 0
KPAD 202220Z 16012G18KT 37/14 A2969 RMK A01 T03740141  RH  026%=      5-min Rain = 0
KPAD 202225Z 17013KT 37/14 A2969 RMK A01 T03730138  RH  026%=      5-min Rain = 0
KPAD 202230Z 16013KT 37/14 A2969 RMK A01 T03720136  RH  026%=      5-min Rain = 0
KPAD 202235Z 16011KT 37/14 A2968 RMK A01 T03730136  RH  025%=      5-min Rain = 0
KPAD 202240Z 17013G18KT 37/13 A2968 RMK A01 T03740130  RH  024%=      5-min Rain = 0
KPAD 202245Z 16013G18KT 37/12 A2968 RMK A01 T03740120  RH  023%=      5-min Rain = 0
KPAD 202250Z 17014KT 37/11 A2968 RMK A01 T03740113  RH  022%=      5-min Rain = 0
KPAD 202255Z 16012G17KT 37/12 A2968 RMK A01 T03730117  RH  022%=      5-min Rain = 0
KPAD 202300Z 17014KT 37/12 A2968 RMK A01 T03730117  RH  022%=      5-min Rain = 0
KPAD 202305Z 16013G18KT 37/11 A2967 RMK A01 T03730114  RH  022%=      5-min Rain = 0
KPAD 202310Z 17014KT 37/11 A2967 RMK A01 T03730111  RH  021%=      5-min Rain = 0
KPAD 202315Z 17013G19KT 37/11 A2967 RMK A01 T03730113  RH  022%=      5-min Rain = 0
KPAD 202320Z 17014KT 37/10 A2967 RMK A01 T03720104  RH  021%=      5-min Rain = 0
KPAD 202325Z 17013KT 37/10 A2967 RMK A01 T03710104  RH  021%=      5-min Rain = 0
KPAD 202330Z 17012KT 37/11 A2967 RMK A01 T03700106  RH  021%=      5-min Rain = 0
KPAD 202335Z 17012KT 37/11 A2967 RMK A01 T03690109  RH  022%=      5-min Rain = 0
KPAD 202340Z 17012G18KT 37/11 A2967 RMK A01 T03680111  RH  022%=      5-min Rain = 0
KPAD 202345Z 17012KT 37/11 A2966 RMK A01 T03670110  RH  022%=      5-min Rain = 0
KPAD 202350Z 17012G17KT 37/11 A2966 RMK A01 T03650108  RH  022%=      5-min Rain = 0
KPAD 202355Z 16011KT 36/11 A2966 RMK A01 T03640114  RH  023%=      5-min Rain = 0
KPAD 210000Z 16011KT 36/12 A2966 RMK A01 T03630122  RH  024%=      5-min Rain = 0
KPAD 210005Z 16010KT 36/13 A2966 RMK A01 T03620131  RH  026%=      5-min Rain = 0
KPAD 210010Z 17010KT 36/14 A2966 RMK A01 T03590137  RH  028%=      5-min Rain = 0
KPAD 210015Z 17011G16KT 36/13 A2966 RMK A01 T03570130  RH  027%=      5-min Rain = 0
KPAD 210020Z 17011KT 36/13 A2966 RMK A01 T03550125  RH  026%=      5-min Rain = 0
KPAD 210025Z 17011KT 35/12 A2966 RMK A01 T03530122  RH  026%=      5-min Rain = 0
KPAD 210030Z 17011KT 35/12 A2966 RMK A01 T03510123  RH  026%=      5-min Rain = 0
KPAD 210035Z 17010G15KT 35/12 A2966 RMK A01 T03480119  RH  026%=      5-min Rain = 0
KPAD 210040Z 17011KT 35/12 A2966 RMK A01 T03470118  RH  026%=      5-min Rain = 0
KPAD 210045Z 17011KT 34/12 A2966 RMK A01 T03440118  RH  026%=      5-min Rain = 0
KPAD 210050Z 17010KT 34/12 A2966 RMK A01 T03410116  RH  027%=      5-min Rain = 0
KPAD 210055Z 17010KT 34/12 A2966 RMK A01 T03360118  RH  028%=      5-min Rain = 0
KPAD 210100Z 17010KT 33/12 A2966 RMK A01 T03310119  RH  029%=      5-min Rain = 0
KPAD 210105Z 17010KT 33/12 A2966 RMK A01 T03280119  RH  029%=      5-min Rain = 0
KPAD 210110Z 17010KT 33/12 A2966 RMK A01 T03260123  RH  030%=      5-min Rain = 0
KPAD 210115Z 17010KT 33/13 A2966 RMK A01 T03250125  RH  031%=      5-min Rain = 0
KPAD 210120Z 17009KT 32/13 A2966 RMK A01 T03200128  RH  032%=      5-min Rain = 0
KPAD 210125Z 17010KT 32/13 A2966 RMK A01 T03190130  RH  033%=      5-min Rain = 0
KPAD 210130Z 17010KT 32/13 A2966 RMK A01 T03170131  RH  034%=      5-min Rain = 0
KPAD 210135Z 17010KT 32/13 A2966 RMK A01 T03160134  RH  034%=      5-min Rain = 0
KPAD 210140Z 17009KT 31/14 A2966 RMK A01 T03130138  RH  036%=      5-min Rain = 0
KPAD 210145Z 17009KT 31/14 A2966 RMK A01 T03080143  RH  038%=      5-min Rain = 0
KPAD 210150Z 17009KT 31/15 A2966 RMK A01 T03050146  RH  040%=      5-min Rain = 0
KPAD 210155Z 16009KT 30/15 A2966 RMK A01 T03020148  RH  041%=      5-min Rain = 0
KPAD 210200Z 16009KT 30/15 A2966 RMK A01 T03000150  RH  042%=      5-min Rain = 0
KPAD 210205Z 17009KT 30/15 A2966 RMK A01 T02980152  RH  043%=      5-min Rain = 0
KPAD 210210Z 16009KT 30/15 A2967 RMK A01 T02960154  RH  044%=      5-min Rain = 0
KPAD 210215Z 16009KT 30/16 A2967 RMK A01 T02950156  RH  045%=      5-min Rain = 0
KPAD 210220Z 16010KT 29/16 A2967 RMK A01 T02940159  RH  046%=      5-min Rain = 0
KPAD 210225Z 16011G16KT 30/16 A2967 RMK A01 T02960161  RH  046%=      5-min Rain = 0
KPAD 210230Z 16013KT 30/16 A2967 RMK A01 T03000162  RH  045%=      5-min Rain = 0
KPAD 210235Z 16012KT 30/16 A2967 RMK A01 T03020164  RH  046%=      5-min Rain = 0
KPAD 210240Z 16012G17KT 30/17 A2967 RMK A01 T03010166  RH  047%=      5-min Rain = 0
KPAD 210245Z 16012G17KT 30/17 A2967 RMK A01 T03010168  RH  047%=      5-min Rain = 0
KPAD 210250Z 16012G17KT 30/17 A2967 RMK A01 T02990170  RH  048%=      5-min Rain = 0
KPAD 210255Z 16011G16KT 30/17 A2967 RMK A01 T02960173  RH  050%=      5-min Rain = 0
KPAD 210300Z 17012KT 29/18 A2968 RMK A01 T02930175  RH  052%=      5-min Rain = 0
KPAD 210305Z 17011KT 29/18 A2968 RMK A01 T02920177  RH  053%=      5-min Rain = 0
KPAD 210310Z 17011KT 29/18 A2968 RMK A01 T02910179  RH  054%=      5-min Rain = 0
KPAD 210315Z 17011KT 29/18 A2968 RMK A01 T02880181  RH  055%=      5-min Rain = 0
KPAD 210320Z 17011KT 29/18 A2968 RMK A01 T02860182  RH  056%=      5-min Rain = 0
KPAD 210325Z 17010KT 29/18 A2969 RMK A01 T02850183  RH  057%=      5-min Rain = 0
KPAD 210330Z 18010KT 28/18 A2969 RMK A01 T02820184  RH  058%=      5-min Rain = 0
KPAD 210335Z 17011KT 28/18 A2969 RMK A01 T02800184  RH  059%=      5-min Rain = 0
KPAD 210340Z 18011KT 28/19 A2969 RMK A01 T02790185  RH  060%=      5-min Rain = 0
KPAD 210345Z 18011KT 28/19 A2969 RMK A01 T02780185  RH  060%=      5-min Rain = 0
KPAD 210350Z 17011KT 28/19 A2969 RMK A01 T02770186  RH  061%=      5-min Rain = 0
KPAD 210355Z 18011KT 28/19 A297 RMK A01 T02770186  RH  061%=      5-min Rain = 0
KPAD 210400Z 18011KT 28/19 A297 RMK A01 T02770187  RH  061%=      5-min Rain = 0
KPAD 210405Z 18011KT 28/19 A297 RMK A01 T02760187  RH  062%=      5-min Rain = 0
KPAD 210410Z 18011KT 28/19 A297 RMK A01 T02760188  RH  062%=      5-min Rain = 0
KPAD 210415Z 18011KT 28/19 A297 RMK A01 T02760188  RH  062%=      5-min Rain = 0
KPAD 210420Z 18011KT 28/19 A297 RMK A01 T02750189  RH  063%=      5-min Rain = 0
KPAD 210425Z 18011KT 28/19 A297 RMK A01 T02760189  RH  063%=      5-min Rain = 0
KPAD 210430Z 18011KT 28/19 A297 RMK A01 T02750189  RH  063%=      5-min Rain = 0
KPAD 210435Z 19011KT 27/19 A297 RMK A01 T02740190  RH  063%=      5-min Rain = 0
KPAD 210440Z 19012KT 27/19 A297 RMK A01 T02730190  RH  064%=      5-min Rain = 0
KPAD 210445Z 18011KT 27/19 A297 RMK A01 T02730190  RH  064%=      5-min Rain = 0
KPAD 210450Z 18011G16KT 27/19 A297 RMK A01 T02720190  RH  064%=      5-min Rain = 0
KPAD 210455Z 18012KT 27/19 A297 RMK A01 T02730190  RH  064%=      5-min Rain = 0

Page generated in 0.0091 seconds.